sensor_id;sensor_type;location;lat;lon;timestamp;pressure;altitude;pressure_sealevel;temperature;humidity
4199;BME280;2113;50.946;14.610;2023-06-10T00:00:10;51802.22;;;-141.55;64.21
4199;BME280;2113;50.946;14.610;2023-06-10T00:02:42;51792.25;;;-141.55;63.93
4199;BME280;2113;50.946;14.610;2023-06-10T00:05:11;51806.22;;;-141.55;65.02
4199;BME280;2113;50.946;14.610;2023-06-10T00:07:40;51812.22;;;-141.55;64.68
4199;BME280;2113;50.946;14.610;2023-06-10T00:10:08;51814.19;;;-141.55;64.53
4199;BME280;2113;50.946;14.610;2023-06-10T00:12:37;51768.34;;;-141.55;64.50
4199;BME280;2113;50.946;14.610;2023-06-10T00:15:07;51794.25;;;-141.55;64.72
4199;BME280;2113;50.946;14.610;2023-06-10T00:17:38;51788.28;;;-141.55;64.85
4199;BME280;2113;50.946;14.610;2023-06-10T00:20:08;51786.28;;;-141.55;64.30
4199;BME280;2113;50.946;14.610;2023-06-10T00:22:39;51828.16;;;-141.55;64.17
4199;BME280;2113;50.946;14.610;2023-06-10T00:25:09;51802.22;;;-141.55;64.07
4199;BME280;2113;50.946;14.610;2023-06-10T00:27:38;51810.22;;;-141.55;65.59
4199;BME280;2113;50.946;14.610;2023-06-10T00:30:07;51800.25;;;-141.55;64.98
4199;BME280;2113;50.946;14.610;2023-06-10T00:32:37;51774.31;;;-141.55;64.79
4199;BME280;2113;50.946;14.610;2023-06-10T00:35:07;51770.31;;;-141.55;65.31
4199;BME280;2113;50.946;14.610;2023-06-10T00:37:36;51762.34;;;-141.55;65.05
4199;BME280;2113;50.946;14.610;2023-06-10T00:40:06;51814.19;;;-141.55;64.89
4199;BME280;2113;50.946;14.610;2023-06-10T00:42:36;51814.19;;;-141.55;65.20
4199;BME280;2113;50.946;14.610;2023-06-10T00:45:05;51746.41;;;-141.55;65.17
4199;BME280;2113;50.946;14.610;2023-06-10T00:47:35;51786.28;;;-141.55;64.68
4199;BME280;2113;50.946;14.610;2023-06-10T00:50:07;51842.13;;;-141.55;64.48
4199;BME280;2113;50.946;14.610;2023-06-10T00:52:35;51808.22;;;-141.55;64.62
4199;BME280;2113;50.946;14.610;2023-06-10T00:55:04;51808.22;;;-141.55;63.51
4199;BME280;2113;50.946;14.610;2023-06-10T00:57:36;51810.22;;;-141.55;61.70
4199;BME280;2113;50.946;14.610;2023-06-10T01:00:05;51808.22;;;-141.55;60.86
4199;BME280;2113;50.946;14.610;2023-06-10T01:02:36;51748.41;;;-141.55;60.39
4199;BME280;2113;50.946;14.610;2023-06-10T01:05:07;51786.28;;;-141.55;59.78
4199;BME280;2113;50.946;14.610;2023-06-10T01:07:38;51754.38;;;-141.55;58.56
4199;BME280;2113;50.946;14.610;2023-06-10T01:10:12;51720.47;;;-141.55;58.39
4199;BME280;2113;50.946;14.610;2023-06-10T01:12:48;51756.38;;;-141.55;59.11
4199;BME280;2113;50.946;14.610;2023-06-10T01:15:20;51786.28;;;-141.55;59.84
4199;BME280;2113;50.946;14.610;2023-06-10T01:17:56;51796.25;;;-141.55;60.47
4199;BME280;2113;50.946;14.610;2023-06-10T01:20:28;51770.31;;;-141.55;59.91
4199;BME280;2113;50.946;14.610;2023-06-10T01:22:59;51798.25;;;-141.55;59.99
4199;BME280;2113;50.946;14.610;2023-06-10T01:25:28;51818.19;;;-141.55;60.20
4199;BME280;2113;50.946;14.610;2023-06-10T01:28:04;51772.31;;;-141.55;60.45
4199;BME280;2113;50.946;14.610;2023-06-10T01:30:39;51794.25;;;-141.55;60.52
4199;BME280;2113;50.946;14.610;2023-06-10T01:33:11;51796.25;;;-141.55;61.22
4199;BME280;2113;50.946;14.610;2023-06-10T01:35:43;51816.19;;;-141.55;61.14
4199;BME280;2113;50.946;14.610;2023-06-10T01:38:14;51776.31;;;-141.55;61.33
4199;BME280;2113;50.946;14.610;2023-06-10T01:40:43;51820.19;;;-141.55;62.00
4199;BME280;2113;50.946;14.610;2023-06-10T01:43:12;51826.16;;;-141.55;62.59
4199;BME280;2113;50.946;14.610;2023-06-10T01:45:40;51806.22;;;-141.55;63.21
4199;BME280;2113;50.946;14.610;2023-06-10T01:48:08;51806.22;;;-141.55;63.37
4199;BME280;2113;50.946;14.610;2023-06-10T01:50:37;51794.25;;;-141.55;63.23
4199;BME280;2113;50.946;14.610;2023-06-10T01:53:05;51848.09;;;-141.55;63.62
4199;BME280;2113;50.946;14.610;2023-06-10T01:55:35;51810.22;;;-141.55;63.66
4199;BME280;2113;50.946;14.610;2023-06-10T01:58:03;51822.19;;;-141.55;62.89
4199;BME280;2113;50.946;14.610;2023-06-10T02:00:31;51838.13;;;-141.55;63.01
4199;BME280;2113;50.946;14.610;2023-06-10T02:03:00;51826.16;;;-141.55;63.37
4199;BME280;2113;50.946;14.610;2023-06-10T02:05:28;51820.19;;;-141.55;63.56
4199;BME280;2113;50.946;14.610;2023-06-10T02:07:58;51808.22;;;-141.55;63.47
4199;BME280;2113;50.946;14.610;2023-06-10T02:10:27;51840.13;;;-141.55;64.19
4199;BME280;2113;50.946;14.610;2023-06-10T02:12:58;51848.09;;;-141.55;64.66
4199;BME280;2113;50.946;14.610;2023-06-10T02:15:26;51846.09;;;-141.55;65.24
4199;BME280;2113;50.946;14.610;2023-06-10T02:17:55;51828.16;;;-141.55;65.25
4199;BME280;2113;50.946;14.610;2023-06-10T02:20:25;51844.13;;;-141.55;65.25
4199;BME280;2113;50.946;14.610;2023-06-10T02:22:53;51828.16;;;-141.55;65.22
4199;BME280;2113;50.946;14.610;2023-06-10T02:25:22;51826.16;;;-141.55;64.76
4199;BME280;2113;50.946;14.610;2023-06-10T02:27:50;51838.13;;;-141.55;64.46
4199;BME280;2113;50.946;14.610;2023-06-10T02:30:20;51812.22;;;-141.55;64.63
4199;BME280;2113;50.946;14.610;2023-06-10T02:32:49;51834.13;;;-141.55;64.39
4199;BME280;2113;50.946;14.610;2023-06-10T02:35:20;51822.19;;;-141.55;63.87
4199;BME280;2113;50.946;14.610;2023-06-10T02:37:50;51822.19;;;-141.55;64.02
4199;BME280;2113;50.946;14.610;2023-06-10T02:40:19;51822.19;;;-141.55;64.58
4199;BME280;2113;50.946;14.610;2023-06-10T02:42:48;51864.06;;;-141.55;64.37
4199;BME280;2113;50.946;14.610;2023-06-10T02:45:17;51834.13;;;-141.55;64.88
4199;BME280;2113;50.946;14.610;2023-06-10T02:47:47;51836.13;;;-141.55;65.60
4199;BME280;2113;50.946;14.610;2023-06-10T02:50:16;51878.00;;;-141.55;66.13
4199;BME280;2113;50.946;14.610;2023-06-10T02:53:08;51897.94;;;-141.55;66.34
4199;BME280;2113;50.946;14.610;2023-06-10T02:55:40;51868.03;;;-141.55;66.98
4199;BME280;2113;50.946;14.610;2023-06-10T02:58:12;51860.06;;;-141.55;67.09
4199;BME280;2113;50.946;14.610;2023-06-10T03:00:42;51870.03;;;-141.55;67.13
4199;BME280;2113;50.946;14.610;2023-06-10T03:03:14;51874.03;;;-141.55;66.96
4199;BME280;2113;50.946;14.610;2023-06-10T03:05:55;51858.06;;;-141.55;67.10
4199;BME280;2113;50.946;14.610;2023-06-10T03:08:27;51868.03;;;-141.55;66.94
4199;BME280;2113;50.946;14.610;2023-06-10T03:10:56;51893.97;;;-141.55;67.18
4199;BME280;2113;50.946;14.610;2023-06-10T03:13:25;51868.03;;;-141.55;67.12
4199;BME280;2113;50.946;14.610;2023-06-10T03:15:53;51874.03;;;-141.55;66.82
4199;BME280;2113;50.946;14.610;2023-06-10T03:18:26;51893.97;;;-141.55;67.70
4199;BME280;2113;50.946;14.610;2023-06-10T03:20:55;51844.13;;;-141.55;67.70
4199;BME280;2113;50.946;14.610;2023-06-10T03:23:25;51856.06;;;-141.55;67.95
4199;BME280;2113;50.946;14.610;2023-06-10T03:25:54;51868.03;;;-141.55;67.89
4199;BME280;2113;50.946;14.610;2023-06-10T03:28:24;51891.97;;;-141.55;68.16
4199;BME280;2113;50.946;14.610;2023-06-10T03:30:52;51858.06;;;-141.55;68.26
4199;BME280;2113;50.946;14.610;2023-06-10T03:33:25;51864.06;;;-141.55;67.84
4199;BME280;2113;50.946;14.610;2023-06-10T03:35:53;51903.94;;;-141.55;67.74
4199;BME280;2113;50.946;14.610;2023-06-10T03:38:23;51878.00;;;-141.55;67.78
4199;BME280;2113;50.946;14.610;2023-06-10T03:40:52;51824.16;;;-141.55;67.43
4199;BME280;2113;50.946;14.610;2023-06-10T03:43:20;51858.06;;;-141.55;67.37
4199;BME280;2113;50.946;14.610;2023-06-10T03:45:50;51886.00;;;-141.55;67.06
4199;BME280;2113;50.946;14.610;2023-06-10T03:48:20;51876.03;;;-141.55;66.72
4199;BME280;2113;50.946;14.610;2023-06-10T03:50:52;51866.03;;;-141.55;66.18
4199;BME280;2113;50.946;14.610;2023-06-10T03:53:21;51913.91;;;-141.55;66.29
4199;BME280;2113;50.946;14.610;2023-06-10T03:55:50;51858.06;;;-141.55;66.03
4199;BME280;2113;50.946;14.610;2023-06-10T03:58:22;51862.06;;;-141.55;66.35
4199;BME280;2113;50.946;14.610;2023-06-10T04:00:52;51868.03;;;-141.55;66.21
4199;BME280;2113;50.946;14.610;2023-06-10T04:03:26;51858.06;;;-141.55;65.63
4199;BME280;2113;50.946;14.610;2023-06-10T04:05:57;51798.25;;;-141.55;65.60
4199;BME280;2113;50.946;14.610;2023-06-10T04:08:26;51842.13;;;-141.55;65.33
4199;BME280;2113;50.946;14.610;2023-06-10T04:10:55;51864.06;;;-141.55;65.25
4199;BME280;2113;50.946;14.610;2023-06-10T04:13:23;51846.09;;;-141.55;65.15
4199;BME280;2113;50.946;14.610;2023-06-10T04:15:59;51846.09;;;-141.55;64.68
4199;BME280;2113;50.946;14.610;2023-06-10T04:18:27;51862.06;;;-141.55;64.61
4199;BME280;2113;50.946;14.610;2023-06-10T04:21:01;51884.00;;;-141.55;65.17
4199;BME280;2113;50.946;14.610;2023-06-10T04:23:33;51848.09;;;-141.55;65.44
4199;BME280;2113;50.946;14.610;2023-06-10T04:26:02;51854.09;;;-141.55;66.05
4199;BME280;2113;50.946;14.610;2023-06-10T04:28:31;51828.16;;;-141.55;66.40
4199;BME280;2113;50.946;14.610;2023-06-10T04:30:59;51846.09;;;-141.55;66.03
4199;BME280;2113;50.946;14.610;2023-06-10T04:33:28;51844.13;;;-141.55;65.80
4199;BME280;2113;50.946;14.610;2023-06-10T04:35:57;51838.13;;;-141.55;66.04
4199;BME280;2113;50.946;14.610;2023-06-10T04:38:30;51860.06;;;-141.55;65.82
4199;BME280;2113;50.946;14.610;2023-06-10T04:40:59;51858.06;;;-141.55;65.95
4199;BME280;2113;50.946;14.610;2023-06-10T04:43:30;51874.03;;;-141.55;66.54
4199;BME280;2113;50.946;14.610;2023-06-10T04:46:00;51854.09;;;-141.55;66.08
4199;BME280;2113;50.946;14.610;2023-06-10T04:48:29;51836.13;;;-141.55;65.79
4199;BME280;2113;50.946;14.610;2023-06-10T04:50:58;51828.16;;;-141.55;66.11
4199;BME280;2113;50.946;14.610;2023-06-10T04:53:27;51882.00;;;-141.55;66.56
4199;BME280;2113;50.946;14.610;2023-06-10T04:55:57;51842.13;;;-141.55;66.40
4199;BME280;2113;50.946;14.610;2023-06-10T04:58:26;51862.06;;;-141.55;66.78
4199;BME280;2113;50.946;14.610;2023-06-10T05:00:54;51836.13;;;-141.55;67.22
4199;BME280;2113;50.946;14.610;2023-06-10T05:03:23;51836.13;;;-141.55;66.53
4199;BME280;2113;50.946;14.610;2023-06-10T05:05:51;51832.16;;;-141.55;65.87
4199;BME280;2113;50.946;14.610;2023-06-10T05:08:20;51820.19;;;-141.55;64.84
4199;BME280;2113;50.946;14.610;2023-06-10T05:10:48;51810.22;;;-141.55;64.39
4199;BME280;2113;50.946;14.610;2023-06-10T05:13:18;51808.22;;;-141.55;64.00
4199;BME280;2113;50.946;14.610;2023-06-10T05:15:46;51844.13;;;-141.55;63.43
4199;BME280;2113;50.946;14.610;2023-06-10T05:18:15;51794.25;;;-141.55;63.78
4199;BME280;2113;50.946;14.610;2023-06-10T05:20:43;51808.22;;;-141.55;63.38
4199;BME280;2113;50.946;14.610;2023-06-10T05:23:13;51786.28;;;-141.55;63.37
4199;BME280;2113;50.946;14.610;2023-06-10T05:25:41;51802.22;;;-141.55;62.77
4199;BME280;2113;50.946;14.610;2023-06-10T05:28:09;51826.16;;;-141.55;62.27
4199;BME280;2113;50.946;14.610;2023-06-10T05:30:43;51832.16;;;-141.55;63.45
4199;BME280;2113;50.946;14.610;2023-06-10T05:33:11;51834.13;;;-141.55;62.74
4199;BME280;2113;50.946;14.610;2023-06-10T05:35:40;51822.19;;;-141.55;62.10
4199;BME280;2113;50.946;14.610;2023-06-10T05:38:08;51774.31;;;-141.55;62.03
4199;BME280;2113;50.946;14.610;2023-06-10T05:40:36;51780.31;;;-141.55;61.68
4199;BME280;2113;50.946;14.610;2023-06-10T05:43:05;51794.25;;;-141.55;62.58
4199;BME280;2113;50.946;14.610;2023-06-10T05:45:33;51778.31;;;-141.55;61.92
4199;BME280;2113;50.946;14.610;2023-06-10T05:48:04;51754.38;;;-141.55;61.41
4199;BME280;2113;50.946;14.610;2023-06-10T05:50:33;51768.34;;;-141.55;61.09
4199;BME280;2113;50.946;14.610;2023-06-10T05:53:05;51768.34;;;-141.55;60.55
4199;BME280;2113;50.946;14.610;2023-06-10T05:55:34;51790.28;;;-141.55;61.79
4199;BME280;2113;50.946;14.610;2023-06-10T05:58:03;51808.22;;;-141.55;61.87
4199;BME280;2113;50.946;14.610;2023-06-10T06:00:31;51774.31;;;-141.55;60.57
4199;BME280;2113;50.946;14.610;2023-06-10T06:03:05;51758.38;;;-141.55;59.79
4199;BME280;2113;50.946;14.610;2023-06-10T06:05:34;51744.41;;;-141.55;58.49
4199;BME280;2113;50.946;14.610;2023-06-10T06:08:05;51758.38;;;-141.55;58.61
4199;BME280;2113;50.946;14.610;2023-06-10T06:10:33;51724.47;;;-141.55;59.10
4199;BME280;2113;50.946;14.610;2023-06-10T06:13:02;51750.38;;;-141.55;60.61
4199;BME280;2113;50.946;14.610;2023-06-10T06:15:30;51742.41;;;-141.55;60.25
4199;BME280;2113;50.946;14.610;2023-06-10T06:17:58;51746.41;;;-141.55;59.72
4199;BME280;2113;50.946;14.610;2023-06-10T06:20:28;51742.41;;;-141.55;59.41
4199;BME280;2113;50.946;14.610;2023-06-10T06:22:57;51754.38;;;-141.55;59.72
4199;BME280;2113;50.946;14.610;2023-06-10T06:25:25;51730.44;;;-141.55;58.79
4199;BME280;2113;50.946;14.610;2023-06-10T06:27:53;51752.38;;;-141.55;58.36
4199;BME280;2113;50.946;14.610;2023-06-10T06:30:22;51756.38;;;-141.55;58.55
4199;BME280;2113;50.946;14.610;2023-06-10T06:32:50;51736.44;;;-141.55;58.27
4199;BME280;2113;50.946;14.610;2023-06-10T06:35:48;51748.41;;;-141.55;57.98
4199;BME280;2113;50.946;14.610;2023-06-10T06:38:16;51746.41;;;-141.55;58.92
4199;BME280;2113;50.946;14.610;2023-06-10T06:40:45;51724.47;;;-141.55;58.16
4199;BME280;2113;50.946;14.610;2023-06-10T06:43:13;51724.47;;;-141.55;57.53
4199;BME280;2113;50.946;14.610;2023-06-10T06:45:54;51710.50;;;-141.55;58.15
4199;BME280;2113;50.946;14.610;2023-06-10T06:48:23;51746.41;;;-141.55;57.27
4199;BME280;2113;50.946;14.610;2023-06-10T06:50:53;51714.50;;;-141.55;56.78
4199;BME280;2113;50.946;14.610;2023-06-10T06:53:23;51704.53;;;-141.55;54.80
4199;BME280;2113;50.946;14.610;2023-06-10T06:56:19;51680.59;;;-141.55;53.45
4199;BME280;2113;50.946;14.610;2023-06-10T06:58:48;51670.63;;;-141.55;53.44
4199;BME280;2113;50.946;14.610;2023-06-10T07:01:16;51724.47;;;-141.55;52.97
4199;BME280;2113;50.946;14.610;2023-06-10T07:03:44;51660.66;;;-141.55;53.42
4199;BME280;2113;50.946;14.610;2023-06-10T07:06:14;51686.56;;;-141.55;52.55
4199;BME280;2113;50.946;14.610;2023-06-10T07:08:42;51632.72;;;-141.55;49.81
4199;BME280;2113;50.946;14.610;2023-06-10T07:11:11;51562.94;;;-141.55;46.78
4199;BME280;2113;50.946;14.610;2023-06-10T07:13:39;51503.13;;;-141.55;42.32
4199;BME280;2113;50.946;14.610;2023-06-10T07:16:07;51451.28;;;-141.55;40.81
4199;BME280;2113;50.946;14.610;2023-06-10T07:18:36;51467.22;;;-141.55;41.15
4199;BME280;2113;50.946;14.610;2023-06-10T07:21:04;51455.28;;;-141.55;41.16
4199;BME280;2113;50.946;14.610;2023-06-10T07:23:34;51447.28;;;-141.55;41.01
4199;BME280;2113;50.946;14.610;2023-06-10T07:26:03;51455.28;;;-141.55;38.77
4199;BME280;2113;50.946;14.610;2023-06-10T07:28:32;51291.75;;;-141.55;35.19
4199;BME280;2113;50.946;14.610;2023-06-10T07:31:01;51315.69;;;-141.55;34.46
4199;BME280;2113;50.946;14.610;2023-06-10T07:33:29;51443.31;;;-141.55;37.72
4199;BME280;2113;50.946;14.610;2023-06-10T07:35:58;51357.56;;;-141.55;37.50
4199;BME280;2113;50.946;14.610;2023-06-10T07:38:26;51431.34;;;-141.55;38.25
4199;BME280;2113;50.946;14.610;2023-06-10T07:40:56;51582.88;;;-141.55;43.72
4199;BME280;2113;50.946;14.610;2023-06-10T07:43:25;51618.78;;;-141.55;46.18
4199;BME280;2113;50.946;14.610;2023-06-10T07:45:53;51670.63;;;-141.55;48.47
4199;BME280;2113;50.946;14.610;2023-06-10T07:48:22;51674.63;;;-141.55;49.53
4199;BME280;2113;50.946;14.610;2023-06-10T07:50:51;51640.72;;;-141.55;48.81
4199;BME280;2113;50.946;14.610;2023-06-10T07:53:19;51598.84;;;-141.55;50.06
4199;BME280;2113;50.946;14.610;2023-06-10T07:55:48;51666.63;;;-141.55;51.04
4199;BME280;2113;50.946;14.610;2023-06-10T07:58:18;51638.72;;;-141.55;50.19
4199;BME280;2113;50.946;14.610;2023-06-10T08:00:46;51650.69;;;-141.55;49.34
4199;BME280;2113;50.946;14.610;2023-06-10T08:03:15;51662.66;;;-141.55;50.11
4199;BME280;2113;50.946;14.610;2023-06-10T08:05:43;51620.78;;;-141.55;49.44
4199;BME280;2113;50.946;14.610;2023-06-10T08:08:13;51578.91;;;-141.55;48.84
4199;BME280;2113;50.946;14.610;2023-06-10T08:10:41;51630.75;;;-141.55;48.70
4199;BME280;2113;50.946;14.610;2023-06-10T08:13:11;51620.78;;;-141.55;49.97
4199;BME280;2113;50.946;14.610;2023-06-10T08:15:41;51648.69;;;-141.55;49.15
4199;BME280;2113;50.946;14.610;2023-06-10T08:18:10;51628.75;;;-141.55;48.66
4199;BME280;2113;50.946;14.610;2023-06-10T08:20:38;51590.84;;;-141.55;47.87
4199;BME280;2113;50.946;14.610;2023-06-10T08:23:06;51547.00;;;-141.55;44.85
4199;BME280;2113;50.946;14.610;2023-06-10T08:25:34;51505.13;;;-141.55;43.83
4199;BME280;2113;50.946;14.610;2023-06-10T08:28:02;51495.16;;;-141.55;41.82
4199;BME280;2113;50.946;14.610;2023-06-10T08:30:31;51525.06;;;-141.55;41.89
4199;BME280;2113;50.946;14.610;2023-06-10T08:33:01;51547.00;;;-141.55;42.70
4199;BME280;2113;50.946;14.610;2023-06-10T08:35:30;51562.94;;;-141.55;44.85
4199;BME280;2113;50.946;14.610;2023-06-10T08:38:00;51602.81;;;-141.55;45.55
4199;BME280;2113;50.946;14.610;2023-06-10T08:40:28;51550.97;;;-141.55;45.06
4199;BME280;2113;50.946;14.610;2023-06-10T08:43:06;51556.97;;;-141.55;45.38
4199;BME280;2113;50.946;14.610;2023-06-10T08:45:36;51570.91;;;-141.55;45.13
4199;BME280;2113;50.946;14.610;2023-06-10T08:48:09;51578.91;;;-141.55;44.58
4199;BME280;2113;50.946;14.610;2023-06-10T08:50:39;51600.84;;;-141.55;45.16
4199;BME280;2113;50.946;14.610;2023-06-10T08:53:14;51636.72;;;-141.55;44.68
4199;BME280;2113;50.946;14.610;2023-06-10T08:55:50;51612.78;;;-141.55;44.68
4199;BME280;2113;50.946;14.610;2023-06-10T08:58:20;51612.78;;;-141.55;44.84
4199;BME280;2113;50.946;14.610;2023-06-10T09:00:48;51606.81;;;-141.55;45.02
4199;BME280;2113;50.946;14.610;2023-06-10T09:03:19;51614.78;;;-141.55;45.10
4199;BME280;2113;50.946;14.610;2023-06-10T09:05:48;51543.00;;;-141.55;40.27
4199;BME280;2113;50.946;14.610;2023-06-10T09:08:17;51479.19;;;-141.55;39.53
4199;BME280;2113;50.946;14.610;2023-06-10T09:10:47;51507.13;;;-141.55;40.95
4199;BME280;2113;50.946;14.610;2023-06-10T09:13:16;51501.13;;;-141.55;39.63
4199;BME280;2113;50.946;14.610;2023-06-10T09:15:45;51503.13;;;-141.55;39.69
4199;BME280;2113;50.946;14.610;2023-06-10T09:18:16;51503.13;;;-141.55;39.50
4199;BME280;2113;50.946;14.610;2023-06-10T09:20:46;51503.13;;;-141.55;40.07
4199;BME280;2113;50.946;14.610;2023-06-10T09:23:15;51481.19;;;-141.55;37.21
4199;BME280;2113;50.946;14.610;2023-06-10T09:25:43;51451.28;;;-141.55;38.16
4199;BME280;2113;50.946;14.610;2023-06-10T09:28:15;51449.28;;;-141.55;38.28
4199;BME280;2113;50.946;14.610;2023-06-10T09:30:44;51423.38;;;-141.55;36.82
4199;BME280;2113;50.946;14.610;2023-06-10T09:33:14;51519.06;;;-141.55;39.25
4199;BME280;2113;50.946;14.610;2023-06-10T09:35:49;51550.97;;;-141.55;42.25
4199;BME280;2113;50.946;14.610;2023-06-10T09:38:20;51509.09;;;-141.55;41.63
4199;BME280;2113;50.946;14.610;2023-06-10T09:40:50;51584.88;;;-141.55;42.97
4199;BME280;2113;50.946;14.610;2023-06-10T09:43:19;51552.97;;;-141.55;42.80
4199;BME280;2113;50.946;14.610;2023-06-10T09:45:48;51590.84;;;-141.55;43.69
4199;BME280;2113;50.946;14.610;2023-06-10T09:48:16;51554.97;;;-141.55;43.71
4199;BME280;2113;50.946;14.610;2023-06-10T09:50:45;51584.88;;;-141.55;44.43
4199;BME280;2113;50.946;14.610;2023-06-10T09:53:17;51628.75;;;-141.55;46.35
4199;BME280;2113;50.946;14.610;2023-06-10T09:55:45;51580.88;;;-141.55;46.62
4199;BME280;2113;50.946;14.610;2023-06-10T09:58:14;51614.78;;;-141.55;46.14
4199;BME280;2113;50.946;14.610;2023-06-10T10:00:42;51620.78;;;-141.55;47.34
4199;BME280;2113;50.946;14.610;2023-06-10T10:03:22;51670.63;;;-141.55;47.27
4199;BME280;2113;50.946;14.610;2023-06-10T10:05:57;51636.72;;;-141.55;48.02
4199;BME280;2113;50.946;14.610;2023-06-10T10:08:28;51654.66;;;-141.55;47.86
4199;BME280;2113;50.946;14.610;2023-06-10T10:10:57;51630.75;;;-141.55;46.93
4199;BME280;2113;50.946;14.610;2023-06-10T10:13:26;51626.75;;;-141.55;47.48
4199;BME280;2113;50.946;14.610;2023-06-10T10:15:57;51614.78;;;-141.55;47.65
4199;BME280;2113;50.946;14.610;2023-06-10T10:18:29;51616.78;;;-141.55;46.44
4199;BME280;2113;50.946;14.610;2023-06-10T10:21:01;51598.84;;;-141.55;45.15
4199;BME280;2113;50.946;14.610;2023-06-10T10:23:41;51535.03;;;-141.55;43.67
4199;BME280;2113;50.946;14.610;2023-06-10T10:26:13;51556.97;;;-141.55;43.46
4199;BME280;2113;50.946;14.610;2023-06-10T10:28:46;51630.75;;;-141.55;45.07
4199;BME280;2113;50.946;14.610;2023-06-10T10:31:18;51562.94;;;-141.55;45.54
4199;BME280;2113;50.946;14.610;2023-06-10T10:33:54;51630.75;;;-141.55;46.36
4199;BME280;2113;50.946;14.610;2023-06-10T10:36:23;51578.91;;;-141.55;46.32
4199;BME280;2113;50.946;14.610;2023-06-10T10:38:54;51584.88;;;-141.55;46.36
4199;BME280;2113;50.946;14.610;2023-06-10T10:41:24;51545.00;;;-141.55;46.47
4199;BME280;2113;50.946;14.610;2023-06-10T10:43:53;51552.97;;;-141.55;45.01
4199;BME280;2113;50.946;14.610;2023-06-10T10:46:22;51527.06;;;-141.55;44.89
4199;BME280;2113;50.946;14.610;2023-06-10T10:48:52;51584.88;;;-141.55;45.48
4199;BME280;2113;50.946;14.610;2023-06-10T10:51:23;51582.88;;;-141.55;45.50
4199;BME280;2113;50.946;14.610;2023-06-10T10:54:11;51610.81;;;-141.55;46.74
4199;BME280;2113;50.946;14.610;2023-06-10T10:57:14;51529.03;;;-141.55;44.97
4199;BME280;2113;50.946;14.610;2023-06-10T10:59:54;51543.00;;;-141.55;45.21
4199;BME280;2113;50.946;14.610;2023-06-10T11:02:36;51527.06;;;-141.55;44.83
4199;BME280;2113;50.946;14.610;2023-06-10T11:05:07;51562.94;;;-141.55;45.24
4199;BME280;2113;50.946;14.610;2023-06-10T11:07:36;51566.94;;;-141.55;45.73
4199;BME280;2113;50.946;14.610;2023-06-10T11:10:08;51584.88;;;-141.55;45.97
4199;BME280;2113;50.946;14.610;2023-06-10T11:12:53;51539.00;;;-141.55;46.36
4199;BME280;2113;50.946;14.610;2023-06-10T11:15:24;51533.03;;;-141.55;44.06
4199;BME280;2113;50.946;14.610;2023-06-10T11:20:51;51566.94;;;-141.55;44.99
4199;BME280;2113;50.946;14.610;2023-06-10T11:23:34;51578.91;;;-141.55;45.62
4199;BME280;2113;50.946;14.610;2023-06-10T11:26:18;51592.84;;;-141.55;46.80
4199;BME280;2113;50.946;14.610;2023-06-10T11:29:09;51527.06;;;-141.55;45.13
4199;BME280;2113;50.946;14.610;2023-06-10T11:31:45;51537.03;;;-141.55;45.38
4199;BME280;2113;50.946;14.610;2023-06-10T11:34:15;51584.88;;;-141.55;45.15
4199;BME280;2113;50.946;14.610;2023-06-10T11:36:51;51574.91;;;-141.55;45.62
4199;BME280;2113;50.946;14.610;2023-06-10T11:39:21;51624.75;;;-141.55;46.47
4199;BME280;2113;50.946;14.610;2023-06-10T11:41:56;51620.78;;;-141.55;46.09
4199;BME280;2113;50.946;14.610;2023-06-10T11:44:27;51578.91;;;-141.55;46.96
4199;BME280;2113;50.946;14.610;2023-06-10T11:47:14;51580.88;;;-141.55;47.33
4199;BME280;2113;50.946;14.610;2023-06-10T11:49:42;51572.91;;;-141.55;46.30
4199;BME280;2113;50.946;14.610;2023-06-10T11:52:13;51576.91;;;-141.55;45.15
4199;BME280;2113;50.946;14.610;2023-06-10T11:54:41;51535.03;;;-141.55;44.67
4199;BME280;2113;50.946;14.610;2023-06-10T11:57:10;51550.97;;;-141.55;44.20
4199;BME280;2113;50.946;14.610;2023-06-10T11:59:38;51558.97;;;-141.55;43.49
4199;BME280;2113;50.946;14.610;2023-06-10T12:02:16;51550.97;;;-141.55;44.46
4199;BME280;2113;50.946;14.610;2023-06-10T12:04:46;51491.16;;;-141.55;43.62
4199;BME280;2113;50.946;14.610;2023-06-10T12:07:17;51433.34;;;-141.55;41.78
4199;BME280;2113;50.946;14.610;2023-06-10T12:09:46;51509.09;;;-141.55;42.84
4199;BME280;2113;50.946;14.610;2023-06-10T12:12:15;51465.25;;;-141.55;42.85
4199;BME280;2113;50.946;14.610;2023-06-10T12:14:53;51525.06;;;-141.55;42.31
4199;BME280;2113;50.946;14.610;2023-06-10T12:17:36;51543.00;;;-141.55;42.02
4199;BME280;2113;50.946;14.610;2023-06-10T12:20:07;51521.06;;;-141.55;43.17
4199;BME280;2113;50.946;14.610;2023-06-10T12:22:37;51554.97;;;-141.55;43.70
4199;BME280;2113;50.946;14.610;2023-06-10T12:25:06;51547.00;;;-141.55;44.42
4199;BME280;2113;50.946;14.610;2023-06-10T12:27:36;51499.13;;;-141.55;40.96
4199;BME280;2113;50.946;14.610;2023-06-10T12:30:06;51495.16;;;-141.55;41.58
4199;BME280;2113;50.946;14.610;2023-06-10T12:32:38;51465.25;;;-141.55;39.74
4199;BME280;2113;50.946;14.610;2023-06-10T12:35:09;51453.28;;;-141.55;39.05
4199;BME280;2113;50.946;14.610;2023-06-10T12:37:39;51433.34;;;-141.55;39.96
4199;BME280;2113;50.946;14.610;2023-06-10T12:40:10;51479.19;;;-141.55;40.44
4199;BME280;2113;50.946;14.610;2023-06-10T12:42:39;51447.28;;;-141.55;41.23
4199;BME280;2113;50.946;14.610;2023-06-10T12:45:09;51473.22;;;-141.55;40.27
4199;BME280;2113;50.946;14.610;2023-06-10T12:47:41;51523.06;;;-141.55;39.91
4199;BME280;2113;50.946;14.610;2023-06-10T12:50:10;51477.19;;;-141.55;40.45
4199;BME280;2113;50.946;14.610;2023-06-10T12:52:39;51562.94;;;-141.55;40.43
4199;BME280;2113;50.946;14.610;2023-06-10T12:55:09;51529.03;;;-141.55;40.59
4199;BME280;2113;50.946;14.610;2023-06-10T12:57:48;51489.16;;;-141.55;40.61
4199;BME280;2113;50.946;14.610;2023-06-10T13:00:17;51499.13;;;-141.55;38.72
4199;BME280;2113;50.946;14.610;2023-06-10T13:02:48;51485.19;;;-141.55;39.66
4199;BME280;2113;50.946;14.610;2023-06-10T13:05:17;51459.25;;;-141.55;38.80
4199;BME280;2113;50.946;14.610;2023-06-10T13:07:47;51437.31;;;-141.55;40.17
4199;BME280;2113;50.946;14.610;2023-06-10T13:10:16;51459.25;;;-141.55;38.86